Time;durP1;ratioP1;P1;durP2;ratioP2;P2;SDS_P1;SDS_P2;PMS_P1;PMS_P2;Temp;Humidity;BMP_temperature;BMP_pressure;BME280_temperature;BME280_humidity;BME280_pressure;Samples;Min_cycle;Max_cycle;Signal;HPM_P1;HPM_P2
2022/07/28 00:00:47;;;;;;;5.55;1.52;;;;;;;16.52;68.15;100486.78;4980393;28;20050;-41
2022/07/28 00:03:13;;;;;;;5.07;1.90;;;;;;;16.53;67.96;100479.81;4978992;28;20043;-44
2022/07/28 00:05:40;;;;;;;4.70;1.60;;;;;;;16.51;67.95;100486.84;4984873;28;20101;-42
2022/07/28 00:08:08;;;;;;;6.28;1.75;;;;;;;16.50;67.88;100485.09;4986346;28;20474;-41
2022/07/28 00:10:35;;;;;;;3.67;1.55;;;;;;;16.50;68.01;100490.31;4985284;28;20069;-48
2022/07/28 00:13:02;;;;;;;4.85;1.40;;;;;;;16.49;68.33;100488.59;4981257;28;20050;-46
2022/07/28 00:15:33;;;;;;;2.65;1.75;;;;;;;16.50;68.24;100479.84;4981314;28;20065;-46
2022/07/28 00:18:01;;;;;;;3.00;1.40;;;;;;;16.50;68.24;100485.09;4978735;28;20053;-43
2022/07/28 00:20:30;;;;;;;5.85;1.70;;;;;;;16.50;68.19;100477.25;4979171;28;20169;-42
2022/07/28 00:22:58;;;;;;;5.45;1.98;;;;;;;16.50;68.19;100469.41;4984730;28;20054;-42
2022/07/28 00:25:27;;;;;;;3.45;1.48;;;;;;;16.51;67.90;100476.38;4980750;28;20051;-44
2022/07/28 00:27:55;;;;;;;2.67;1.45;;;;;;;16.51;68.06;100473.75;4979052;28;20046;-41
2022/07/28 00:30:23;;;;;;;2.72;1.92;;;;;;;16.50;67.87;100474.63;4979751;28;20094;-45
2022/07/28 00:32:52;;;;;;;3.50;1.70;;;;;;;16.50;67.79;100469.41;4977131;28;20046;-42
2022/07/28 00:35:20;;;;;;;3.22;1.63;;;;;;;16.51;68.03;100465.91;4981291;28;20055;-42
2022/07/28 00:37:56;;;;;;;3.47;1.50;;;;;;;16.50;68.65;100465.03;4980871;28;20132;-42
2022/07/28 00:41:09;;;;;;;7.15;1.23;;;;;;;16.51;68.00;100468.53;4980073;28;20042;-42
2022/07/28 00:43:09;;;;;;;4.00;1.55;;;;;;;16.51;67.81;100466.75;4977100;28;20183;-43
2022/07/28 00:45:36;;;;;;;3.83;1.95;;;;;;;16.51;67.81;100458.06;4979700;28;20089;-42
2022/07/28 00:48:03;;;;;;;3.88;1.40;;;;;;;16.52;67.98;100463.25;4983099;28;20105;-43
2022/07/28 00:50:30;;;;;;;4.88;1.42;;;;;;;16.53;68.19;100458.88;4980822;28;20077;-42
2022/07/28 00:52:57;;;;;;;2.55;1.42;;;;;;;16.52;67.96;100458.00;4979656;28;20165;-41
2022/07/28 00:55:24;;;;;;;3.97;1.50;;;;;;;16.53;68.11;100458.88;4982344;28;20046;-42
2022/07/28 00:57:51;;;;;;;4.93;1.45;;;;;;;16.53;68.63;100458.88;4980475;28;20112;-43
2022/07/28 01:00:17;;;;;;;3.88;1.38;;;;;;;16.51;68.06;100451.06;4977373;28;20050;-42
2022/07/28 01:02:45;;;;;;;2.40;1.30;;;;;;;16.48;67.75;100450.28;4982504;28;20046;-45
2022/07/28 01:05:13;;;;;;;5.15;1.38;;;;;;;16.48;68.23;100452.91;4981874;28;20050;-42
2022/07/28 01:08:04;;;;;;;3.53;1.63;;;;;;;16.40;67.82;100448.69;4983085;28;20112;-43
2022/07/28 01:13:18;;;;;;;3.35;1.58;;;;;;;16.45;67.78;100454.66;5050148;27;20413;-41
2022/07/28 01:15:54;;;;;;;2.78;1.00;;;;;;;16.45;68.32;100456.44;5039438;28;20098;-42
2022/07/28 01:18:25;;;;;;;3.15;1.25;;;;;;;16.45;68.22;100452.06;5053567;28;20441;-42
2022/07/28 01:20:58;;;;;;;2.58;1.33;;;;;;;16.47;68.26;100451.16;5055707;28;20118;-41
2022/07/28 01:31:23;;;;;;;2.20;1.30;;;;;;;16.49;68.06;100441.53;5006769;28;20935;-44
2022/07/28 01:33:55;;;;;;;3.47;1.33;;;;;;;16.47;67.84;100438.09;5003385;28;20399;-46
2022/07/28 01:36:26;;;;;;;4.82;1.55;;;;;;;16.42;68.19;100441.66;5000653;28;20101;-43
2022/07/28 01:38:54;;;;;;;3.95;1.10;;;;;;;16.38;68.24;100434.78;5004004;28;20050;-43
2022/07/28 01:41:23;;;;;;;3.70;1.30;;;;;;;16.34;67.90;100427.88;4997824;28;20649;-42
2022/07/28 01:43:56;;;;;;;2.70;0.95;;;;;;;16.30;68.16;100421.00;5001990;28;20140;-45
2022/07/28 01:46:24;;;;;;;3.72;1.73;;;;;;;16.29;68.08;100429.75;5002514;28;20379;-42
2022/07/28 01:48:53;;;;;;;4.47;1.33;;;;;;;16.29;68.50;100432.38;5002180;28;20073;-42
2022/07/28 01:51:22;;;;;;;5.05;1.10;;;;;;;16.30;68.53;100428.84;5002755;28;20147;-44
2022/07/28 01:53:51;;;;;;;3.83;1.15;;;;;;;16.30;68.42;100427.09;4999975;28;20100;-44
2022/07/28 01:56:20;;;;;;;3.63;1.40;;;;;;;16.33;68.32;100431.41;5000641;28;20046;-41
2022/07/28 01:58:50;;;;;;;2.70;1.00;;;;;;;16.34;68.82;100425.28;4999779;28;20081;-42
2022/07/28 02:01:19;;;;;;;6.93;1.40;;;;;;;16.35;68.27;100427.00;5001138;28;20077;-42
2022/07/28 02:03:47;;;;;;;4.35;1.30;;;;;;;16.36;68.54;100431.34;4998497;28;20130;-42
2022/07/28 02:06:16;;;;;;;2.90;0.90;;;;;;;16.36;68.40;100425.25;4998832;28;20046;-42
2022/07/28 02:08:43;;;;;;;2.83;1.42;;;;;;;16.35;68.45;100427.00;5000152;28;20662;-44
2022/07/28 02:13:57;;;;;;;3.75;1.02;;;;;;;16.32;68.50;100427.91;5002964;28;20042;-47
2022/07/28 02:16:26;;;;;;;7.40;1.40;;;;;;;16.32;68.37;100414.00;4996546;28;20668;-43
2022/07/28 02:18:55;;;;;;;5.22;1.67;;;;;;;16.29;68.56;100419.28;4994785;28;20485;-43
2022/07/28 02:21:24;;;;;;;2.60;1.02;;;;;;;16.27;68.58;100415.84;5000058;28;20108;-44
2022/07/28 02:23:52;;;;;;;2.33;1.38;;;;;;;16.26;68.06;100414.13;5014110;28;20125;-42
2022/07/28 02:26:26;;;;;;;2.33;1.10;;;;;;;16.24;68.37;100415.94;4996696;28;20058;-43
2022/07/28 02:28:56;;;;;;;2.10;0.95;;;;;;;16.24;68.67;100415.94;4999564;28;20080;-43
2022/07/28 02:31:33;;;;;;;5.63;1.25;;;;;;;16.22;68.79;100408.13;4997335;28;20383;-43
2022/07/28 02:34:03;;;;;;;6.28;1.45;;;;;;;16.24;68.55;100410.69;4999838;28;20051;-42
2022/07/28 02:36:37;;;;;;;2.03;0.95;;;;;;;16.23;68.54;100408.94;4998295;28;20056;-43
2022/07/28 02:39:11;;;;;;;3.47;1.10;;;;;;;16.23;68.25;100403.72;4996185;28;20104;-43
2022/07/28 02:41:41;;;;;;;4.25;1.05;;;;;;;16.22;68.28;100402.00;4989669;28;20102;-43
2022/07/28 02:44:18;;;;;;;3.72;1.13;;;;;;;16.18;68.78;100402.06;4986574;28;20054;-43
2022/07/28 02:46:50;;;;;;;3.28;1.10;;;;;;;16.21;68.70;100398.53;4986830;28;20057;-42
2022/07/28 02:49:29;;;;;;;4.53;1.25;;;;;;;16.16;68.65;100396.03;4983907;28;20043;-42
2022/07/28 02:51:58;;;;;;;3.45;1.13;;;;;;;16.20;68.73;100399.44;4984108;28;20053;-42
2022/07/28 02:54:26;;;;;;;5.88;1.20;;;;;;;16.18;68.50;100396.84;4984836;28;20051;-45
2022/07/28 02:56:56;;;;;;;4.57;1.10;;;;;;;16.17;68.24;100395.13;4987787;28;20057;-43
2022/07/28 02:59:24;;;;;;;5.63;1.55;;;;;;;16.14;68.98;100400.41;4987846;28;20050;-42
2022/07/28 03:01:51;;;;;;;5.63;1.33;;;;;;;16.14;68.98;100395.19;4985329;28;20600;-41
2022/07/28 03:07:06;;;;;;;3.08;0.80;;;;;;;16.12;68.31;100393.50;4972808;28;20104;-41
2022/07/28 03:09:42;;;;;;;2.47;1.00;;;;;;;16.10;68.87;100397.88;4984309;28;20082;-44
2022/07/28 03:12:09;;;;;;;5.22;1.15;;;;;;;16.11;68.62;100397.84;4983598;28;20097;-43
2022/07/28 03:14:36;;;;;;;4.65;1.10;;;;;;;16.10;68.59;100393.53;5001171;28;20442;-43
2022/07/28 03:17:03;;;;;;;5.00;1.30;;;;;;;16.10;69.05;100396.16;4988359;28;20046;-44
2022/07/28 03:19:31;;;;;;;3.70;1.00;;;;;;;16.10;68.83;100397.88;4986670;28;20041;-44
2022/07/28 03:21:57;;;;;;;2.92;1.23;;;;;;;16.07;68.49;100388.38;4979901;28;20057;-42
2022/07/28 03:24:28;;;;;;;3.47;1.05;;;;;;;16.07;68.74;100388.38;4985874;28;20054;-41
2022/07/28 03:27:03;;;;;;;3.53;1.30;;;;;;;16.06;68.75;100394.50;4986752;28;20050;-42
2022/07/28 03:29:31;;;;;;;4.03;1.48;;;;;;;16.08;69.10;100397.94;4987956;28;20559;-41
2022/07/28 03:31:59;;;;;;;2.78;1.40;;;;;;;16.08;69.07;100394.47;4987151;28;20479;-42
2022/07/28 03:34:27;;;;;;;3.08;1.50;;;;;;;16.06;68.88;100397.97;4987337;28;20050;-43
2022/07/28 03:37:01;;;;;;;4.28;1.08;;;;;;;16.05;69.05;100390.16;4988764;28;20043;-41
2022/07/28 03:39:31;;;;;;;5.32;1.00;;;;;;;16.06;69.36;100391.88;4985100;28;21264;-43
2022/07/28 03:42:00;;;;;;;2.90;1.75;;;;;;;16.06;68.86;100389.25;4987775;28;20061;-45
2022/07/28 03:44:28;;;;;;;5.63;1.42;;;;;;;16.05;69.12;100390.16;4990586;28;20466;-43
2022/07/28 03:46:55;;;;;;;3.85;1.50;;;;;;;16.05;69.29;100395.38;4987963;28;20100;-41
2022/07/28 03:49:21;;;;;;;4.40;1.55;;;;;;;16.04;69.01;100396.25;4984910;28;20058;-43
2022/07/28 03:51:48;;;;;;;3.85;1.30;;;;;;;16.04;68.98;100396.25;4988568;28;20065;-42
2022/07/28 03:54:15;;;;;;;2.88;1.33;;;;;;;16.04;69.31;100399.75;4988210;28;20046;-42
2022/07/28 03:56:42;;;;;;;3.88;1.55;;;;;;;16.02;69.31;100385.88;4987463;28;20379;-41
2022/07/28 03:59:10;;;;;;;3.22;1.50;;;;;;;16.03;69.32;100391.94;4988539;28;20530;-44
2022/07/28 04:01:37;;;;;;;3.55;1.40;;;;;;;16.02;69.44;100387.59;4986006;28;20050;-44
2022/07/28 04:04:04;;;;;;;2.83;1.30;;;;;;;16.04;69.02;100394.50;4987265;28;20050;-46
2022/07/28 04:06:31;;;;;;;2.33;1.25;;;;;;;16.03;69.12;100387.56;4984526;28;20046;-43
2022/07/28 04:08:58;;;;;;;4.70;1.40;;;;;;;16.01;69.40;100388.50;4987309;28;20054;-42
2022/07/28 04:11:24;;;;;;;4.07;1.45;;;;;;;16.00;69.43;100397.22;4983940;28;20050;-41
2022/07/28 04:13:51;;;;;;;4.03;1.48;;;;;;;15.99;69.21;100396.38;4986813;28;20407;-42
2022/07/28 04:16:18;;;;;;;2.53;1.15;;;;;;;15.98;69.47;100388.56;4982827;28;20045;-43
2022/07/28 04:18:47;;;;;;;3.42;1.40;;;;;;;15.97;69.70;100390.28;4983565;28;20070;-43
2022/07/28 04:21:15;;;;;;;3.70;1.60;;;;;;;15.98;69.22;100393.78;4980874;28;20050;-42
2022/07/28 04:23:41;;;;;;;4.07;1.13;;;;;;;15.96;69.40;100390.31;4980572;28;20054;-43
2022/07/28 04:26:08;;;;;;;2.85;1.85;;;;;;;15.94;69.50;100391.19;4984986;28;20065;-42
2022/07/28 04:28:35;;;;;;;4.60;1.40;;;;;;;15.94;69.04;100388.59;4986729;28;20050;-44
2022/07/28 04:31:01;;;;;;;4.65;1.58;;;;;;;15.92;69.33;100390.38;4985358;28;20046;-43
2022/07/28 04:33:29;;;;;;;2.92;1.48;;;;;;;15.91;69.08;100393.03;4984187;28;20046;-42
2022/07/28 04:35:56;;;;;;;2.78;1.17;;;;;;;15.89;69.56;100394.78;4983527;28;20050;-43
2022/07/28 04:38:22;;;;;;;5.22;1.42;;;;;;;15.87;69.35;100396.59;4979374;28;20406;-41
2022/07/28 04:40:49;;;;;;;5.38;1.55;;;;;;;15.82;69.51;100396.66;4983114;28;20046;-41
2022/07/28 04:43:16;;;;;;;3.95;1.40;;;;;;;15.73;70.16;100391.59;4987013;28;20422;-45
2022/07/28 04:45:45;;;;;;;4.70;1.80;;;;;;;15.73;69.49;100394.19;4982014;28;20116;-45
2022/07/28 04:48:20;;;;;;;5.35;1.60;;;;;;;15.67;69.62;100393.44;4980443;28;20491;-46
2022/07/28 04:50:48;;;;;;;4.97;1.25;;;;;;;15.66;70.08;100393.47;4979761;28;20054;-45
2022/07/28 04:53:14;;;;;;;4.97;1.50;;;;;;;15.65;69.95;100392.63;4982718;28;20050;-42
2022/07/28 04:55:41;;;;;;;3.50;1.50;;;;;;;15.66;70.18;100389.13;4986762;28;20054;-43
2022/07/28 04:58:08;;;;;;;3.40;1.63;;;;;;;15.67;69.98;100393.44;4980439;28;20061;-41
2022/07/28 05:00:34;;;;;;;6.15;1.33;;;;;;;15.72;70.19;100387.28;4985440;28;20093;-41
2022/07/28 05:03:03;;;;;;;6.03;1.65;;;;;;;15.74;69.87;100391.56;4983496;28;20614;-42
2022/07/28 05:05:30;;;;;;;6.45;1.52;;;;;;;15.77;70.27;100393.28;4983809;28;20073;-45
2022/07/28 05:07:56;;;;;;;11.50;1.70;;;;;;;15.79;70.16;100391.50;4983287;28;20426;-42
2022/07/28 05:10:23;;;;;;;3.20;1.50;;;;;;;15.79;69.80;100394.09;4983742;28;20120;-44
2022/07/28 05:12:51;;;;;;;3.90;1.38;;;;;;;15.79;70.03;100394.09;4980791;28;20109;-43
2022/07/28 05:15:18;;;;;;;3.10;1.63;;;;;;;15.80;70.03;100390.59;4985836;28;20053;-42
2022/07/28 05:17:44;;;;;;;3.63;1.60;;;;;;;15.83;70.12;100395.75;4985588;28;20046;-41
2022/07/28 05:20:12;;;;;;;3.35;1.40;;;;;;;15.83;70.27;100390.53;4982306;28;20082;-41
2022/07/28 05:22:45;;;;;;;5.50;1.75;;;;;;;15.84;70.33;100397.47;4980482;28;20068;-40
2022/07/28 05:25:14;;;;;;;4.35;1.45;;;;;;;15.85;70.25;100399.22;4982780;28;20054;-43
2022/07/28 05:27:40;;;;;;;5.22;1.75;;;;;;;15.84;70.10;100402.69;4983314;28;20054;-42
2022/07/28 05:30:08;;;;;;;5.30;2.42;;;;;;;15.82;70.21;100394.06;4981821;28;20105;-41
2022/07/28 05:32:35;;;;;;;4.47;1.20;;;;;;;15.83;70.09;100406.22;4982220;28;20462;-44
2022/07/28 05:35:01;;;;;;;7.25;1.50;;;;;;;15.84;70.41;100405.31;4984183;28;20930;-42
2022/07/28 05:37:31;;;;;;;4.55;1.63;;;;;;;15.84;70.61;100402.69;4982733;28;20101;-47
2022/07/28 05:39:57;;;;;;;6.95;1.52;;;;;;;15.87;70.27;100405.25;4979520;28;20112;-45
2022/07/28 05:42:25;;;;;;;4.28;1.85;;;;;;;15.91;70.25;100414.75;4981033;28;20101;-43
2022/07/28 05:44:52;;;;;;;3.45;1.50;;;;;;;15.91;70.37;100404.31;4983568;28;20400;-41
2022/07/28 05:47:18;;;;;;;5.85;2.13;;;;;;;15.93;69.89;100402.53;4984933;28;20050;-41
2022/07/28 05:49:45;;;;;;;11.18;2.97;;;;;;;15.97;70.21;100398.13;4982430;28;20046;-41
2022/07/28 05:52:11;;;;;;;5.72;1.80;;;;;;;15.99;70.03;100395.50;4978859;28;20639;-41
2022/07/28 05:54:38;;;;;;;3.50;1.80;;;;;;;16.00;69.99;100394.59;4983705;28;20042;-42
2022/07/28 05:57:05;;;;;;;4.22;1.42;;;;;;;16.02;69.79;100395.44;4982005;28;20046;-41
2022/07/28 05:59:31;;;;;;;6.68;1.95;;;;;;;16.07;70.34;100396.19;4982644;28;20081;-43
2022/07/28 06:02:00;;;;;;;5.93;1.73;;;;;;;16.11;70.60;100395.25;4980786;28;20046;-40
2022/07/28 06:04:27;;;;;;;3.97;1.60;;;;;;;16.13;70.41;100393.47;4979959;28;20042;-41
2022/07/28 06:06:54;;;;;;;7.53;1.90;;;;;;;16.14;70.50;100397.81;4980025;28;20120;-42
2022/07/28 06:09:21;;;;;;;5.63;2.00;;;;;;;16.16;70.31;100392.53;4979427;28;20809;-42
2022/07/28 06:11:49;;;;;;;3.60;1.75;;;;;;;16.18;70.16;100396.00;4982699;28;20568;-41
2022/07/28 06:14:16;;;;;;;4.38;1.60;;;;;;;16.21;70.17;100395.06;4980058;28;20137;-44
2022/07/28 06:16:49;;;;;;;5.18;1.70;;;;;;;16.23;70.15;100404.59;4983455;28;20077;-42
2022/07/28 06:19:17;;;;;;;7.45;1.80;;;;;;;16.25;70.01;100396.72;4987218;28;20050;-43
2022/07/28 06:21:43;;;;;;;4.45;1.70;;;;;;;16.28;69.60;100401.91;4982926;28;20561;-43
2022/07/28 06:24:10;;;;;;;4.60;1.55;;;;;;;16.31;70.19;100401.81;4981630;28;20767;-42
2022/07/28 06:26:38;;;;;;;4.38;1.75;;;;;;;16.34;69.76;100396.53;4985995;28;20043;-43
2022/07/28 06:29:10;;;;;;;6.72;2.20;;;;;;;16.37;70.31;100401.69;4987171;28;20050;-41
2022/07/28 06:31:37;;;;;;;4.93;1.80;;;;;;;16.38;70.55;100406.03;4987680;28;20050;-43
2022/07/28 06:34:05;;;;;;;3.65;1.70;;;;;;;16.40;69.71;100406.88;4987762;28;20929;-44
2022/07/28 06:36:31;;;;;;;4.82;1.63;;;;;;;16.41;69.41;100405.09;4988687;28;20070;-42
2022/07/28 06:38:58;;;;;;;4.45;1.73;;;;;;;16.43;70.09;100406.81;4988228;28;20050;-45
2022/07/28 06:41:24;;;;;;;5.63;1.65;;;;;;;16.47;69.71;100401.47;4986285;28;20097;-43
2022/07/28 06:43:51;;;;;;;6.40;2.05;;;;;;;16.51;69.67;100398.78;4988774;28;20054;-46
2022/07/28 06:46:18;;;;;;;5.25;1.67;;;;;;;16.56;69.54;100396.06;4986279;28;20038;-43
2022/07/28 06:48:45;;;;;;;6.13;1.90;;;;;;;16.60;70.55;100392.50;4985313;28;20140;-45
2022/07/28 06:51:13;;;;;;;3.80;1.67;;;;;;;16.67;69.78;100396.69;4981795;28;20046;-42
2022/07/28 06:53:40;;;;;;;7.15;1.67;;;;;;;16.73;69.58;100397.44;4986768;28;20050;-46
2022/07/28 06:56:08;;;;;;;5.15;1.83;;;;;;;16.76;69.99;100395.63;4987695;28;20394;-43
2022/07/28 06:58:41;;;;;;;4.53;1.88;;;;;;;16.83;70.43;100399.78;4981402;28;20062;-44
2022/07/28 07:01:13;;;;;;;3.78;1.55;;;;;;;16.92;69.82;100403.13;4982598;28;20140;-41
2022/07/28 07:03:41;;;;;;;11.43;2.03;;;;;;;16.96;69.24;100394.31;4984500;28;20117;-42
2022/07/28 07:06:09;;;;;;;4.40;1.55;;;;;;;16.99;69.97;100398.59;4983208;28;20046;-44
2022/07/28 07:08:36;;;;;;;5.18;1.30;;;;;;;17.05;69.83;100404.56;4979732;28;20618;-44
2022/07/28 07:11:03;;;;;;;8.52;2.03;;;;;;;17.09;69.94;100405.34;4975691;28;20066;-42
2022/07/28 07:13:31;;;;;;;4.82;1.40;;;;;;;17.11;69.65;100398.31;4978813;28;20046;-41
2022/07/28 07:15:57;;;;;;;4.35;1.42;;;;;;;17.14;69.70;100403.50;4983973;28;20194;-41
2022/07/28 07:18:24;;;;;;;5.25;1.58;;;;;;;17.16;69.17;100401.69;4981642;28;20042;-45
2022/07/28 07:20:53;;;;;;;3.45;1.13;;;;;;;17.18;69.35;100393.78;4983023;28;20592;-42
2022/07/28 07:23:20;;;;;;;4.72;1.67;;;;;;;17.21;69.59;100394.59;4984727;28;21320;-48
2022/07/28 07:25:46;;;;;;;5.57;1.90;;;;;;;17.27;68.77;100403.19;4982941;28;20081;-45
2022/07/28 07:28:13;;;;;;;4.35;1.83;;;;;;;17.33;69.46;100397.81;4974583;28;20090;-42
2022/07/28 07:30:40;;;;;;;8.15;1.65;;;;;;;17.38;68.95;100398.53;4978907;28;20058;-47
2022/07/28 07:33:06;;;;;;;9.82;1.85;;;;;;;17.43;68.71;100399.25;4976947;28;21190;-45
2022/07/28 07:35:36;;;;;;;5.90;1.90;;;;;;;17.52;68.54;100397.31;4976075;28;20050;-45
2022/07/28 07:38:03;;;;;;;6.85;2.13;;;;;;;17.58;68.68;100398.03;4982055;28;20065;-44
2022/07/28 07:40:30;;;;;;;10.20;2.08;;;;;;;17.67;68.42;100401.28;4978681;28;20058;-48
2022/07/28 07:42:57;;;;;;;3.90;1.67;;;;;;;17.76;68.89;100392.34;4978712;28;20094;-43
2022/07/28 07:45:24;;;;;;;6.43;1.60;;;;;;;17.84;68.05;100403.47;4981977;28;20046;-43
2022/07/28 07:47:51;;;;;;;5.53;1.63;;;;;;;17.94;68.75;100398.81;4983496;28;20064;-43
2022/07/28 07:50:17;;;;;;;5.53;1.70;;;;;;;18.03;68.53;100398.56;4980532;28;21547;-45
2022/07/28 07:52:44;;;;;;;5.85;2.08;;;;;;;18.17;68.40;100399.97;4980148;28;20050;-43
2022/07/28 07:55:10;;;;;;;4.85;1.92;;;;;;;18.28;68.30;100404.88;4978738;28;20108;-42
2022/07/28 07:57:37;;;;;;;4.85;1.65;;;;;;;18.36;68.20;100400.28;4978557;28;20054;-45
2022/07/28 08:00:04;;;;;;;4.78;1.38;;;;;;;18.38;67.58;100408.97;4978476;28;20046;-47
2022/07/28 08:02:31;;;;;;;3.58;1.50;;;;;;;18.38;67.51;100408.97;4978995;28;20046;-43
2022/07/28 08:04:59;;;;;;;3.10;1.10;;;;;;;18.35;67.41;100409.06;4982414;28;20082;-46
2022/07/28 08:07:26;;;;;;;2.33;1.20;;;;;;;18.39;66.87;100409.81;4982537;28;20511;-46
2022/07/28 08:09:53;;;;;;;4.47;1.45;;;;;;;18.39;67.18;100408.06;4980627;28;20521;-47
2022/07/28 08:12:19;;;;;;;6.13;1.30;;;;;;;18.47;66.99;100406.06;4985227;28;20176;-44
2022/07/28 08:14:52;;;;;;;5.93;1.65;;;;;;;18.57;67.14;100405.75;4978208;28;20660;-45
2022/07/28 08:17:19;;;;;;;5.28;1.20;;;;;;;18.67;66.63;100394.09;4979111;28;20105;-42
2022/07/28 08:19:51;;;;;;;3.25;1.48;;;;;;;18.79;67.17;100400.72;4979516;28;20469;-48
2022/07/28 08:22:18;;;;;;;3.45;1.20;;;;;;;18.91;65.94;100396.84;4981055;28;20096;-46
2022/07/28 08:24:44;;;;;;;5.03;1.20;;;;;;;19.03;66.31;100400.84;4982002;28;20473;-41
2022/07/28 08:27:11;;;;;;;5.60;1.52;;;;;;;19.22;65.42;100406.38;4980679;28;20054;-45
2022/07/28 08:29:38;;;;;;;2.97;1.08;;;;;;;19.39;65.24;100397.09;4980889;28;20598;-42
2022/07/28 08:32:05;;;;;;;3.42;1.42;;;;;;;19.55;65.28;100402.66;4982239;28;20097;-45
2022/07/28 08:34:33;;;;;;;3.58;1.30;;;;;;;19.68;64.30;100397.84;4979090;28;20054;-43
2022/07/28 08:37:02;;;;;;;3.92;1.40;;;;;;;19.84;64.34;100402.53;4979765;28;20116;-44
2022/07/28 08:39:30;;;;;;;3.10;1.60;;;;;;;19.94;64.49;100403.06;4997087;28;20054;-45
2022/07/28 08:44:46;;;;;;;5.53;2.15;;;;;;;20.21;62.56;100398.59;5042428;28;20402;-42
2022/07/28 08:47:14;;;;;;;2.30;1.60;;;;;;;20.36;62.47;100398.94;4982461;28;20054;-43
2022/07/28 08:49:42;;;;;;;6.40;2.20;;;;;;;20.58;62.71;100404.22;4995878;28;20080;-45
2022/07/28 08:52:11;;;;;;;4.18;1.50;;;;;;;20.76;62.08;100402.63;4983103;28;20047;-45
2022/07/28 08:54:42;;;;;;;3.95;2.08;;;;;;;20.89;61.75;100402.19;4983404;28;20054;-47
2022/07/28 08:57:21;;;;;;;3.50;2.25;;;;;;;20.98;61.74;100407.09;4998306;28;20047;-42
2022/07/28 08:59:49;;;;;;;4.03;1.67;;;;;;;21.11;60.92;100404.78;4981458;28;20050;-48
2022/07/28 09:02:16;;;;;;;2.42;1.33;;;;;;;21.19;61.04;100407.09;4996177;28;20046;-48
2022/07/28 09:04:45;;;;;;;2.83;1.17;;;;;;;21.21;60.58;100402.63;4999472;28;20038;-48
2022/07/28 09:07:12;;;;;;;4.65;1.30;;;;;;;21.26;61.08;100403.31;4996076;28;20074;-44
2022/07/28 09:09:39;;;;;;;4.90;2.00;;;;;;;21.14;59.32;100396.75;4996256;28;20043;-46
2022/07/28 09:12:06;;;;;;;8.88;1.65;;;;;;;21.18;59.64;100402.78;4995856;28;20047;-47
2022/07/28 09:14:33;;;;;;;2.38;1.17;;;;;;;21.32;60.40;100397.75;4984213;28;20061;-47
2022/07/28 09:17:01;;;;;;;8.98;1.95;;;;;;;21.45;59.99;100405.16;4982002;28;20105;-46
2022/07/28 09:19:28;;;;;;;4.53;1.77;;;;;;;21.64;59.76;100393.81;5011980;28;20057;-47
2022/07/28 09:22:02;;;;;;;3.15;2.28;;;;;;;21.68;58.51;100395.38;4997019;28;20137;-45
2022/07/28 09:27:11;;;;;;;3.80;1.38;;;;;;;22.19;58.52;100389.66;5025389;27;20414;-45
2022/07/28 09:29:40;;;;;;;4.15;1.70;;;;;;;22.23;56.51;100385.97;4981916;28;20050;-43
2022/07/28 09:32:07;;;;;;;5.55;1.77;;;;;;;22.21;56.94;100391.28;4995923;28;20046;-43
2022/07/28 09:34:40;;;;;;;5.20;2.05;;;;;;;22.34;57.44;100388.09;4981541;28;20109;-44
2022/07/28 09:37:17;;;;;;;8.77;2.40;;;;;;;22.52;57.77;100391.63;4980602;28;20058;-43
2022/07/28 09:39:56;;;;;;;3.70;1.55;;;;;;;22.71;57.26;100385.50;5008977;28;20089;-44
2022/07/28 09:42:23;;;;;;;5.25;1.63;;;;;;;22.84;56.20;100383.13;4981639;28;20542;-45
2022/07/28 09:45:07;;;;;;;3.60;1.95;;;;;;;22.95;55.22;100385.22;4978762;28;20051;-47
2022/07/28 09:48:09;;;;;;;3.28;1.25;;;;;;;23.01;55.27;100382.28;4975725;28;20051;-43
2022/07/28 09:50:38;;;;;;;3.45;2.03;;;;;;;22.88;53.86;100382.03;4993396;28;20069;-50
2022/07/28 09:55:59;;;;;;;5.28;1.70;;;;;;;22.83;53.62;100384.06;5004430;28;20415;-47
2022/07/28 09:58:28;;;;;;;2.60;1.45;;;;;;;22.84;54.28;100381.31;5000609;28;20046;-50
2022/07/28 10:01:14;;;;;;;7.50;1.23;;;;;;;22.88;54.11;100370.63;5001260;28;20093;-46
2022/07/28 10:03:47;;;;;;;6.40;1.83;;;;;;;22.85;53.67;100377.78;5000376;28;20053;-47
2022/07/28 10:06:15;;;;;;;4.03;2.00;;;;;;;22.81;53.84;100381.50;4995754;28;20054;-45
2022/07/28 10:08:47;;;;;;;3.13;1.52;;;;;;;22.73;53.42;100384.50;5003651;28;20478;-44
2022/07/28 10:11:16;;;;;;;3.45;1.85;;;;;;;22.66;53.86;100385.72;4994392;28;20104;-45
2022/07/28 10:16:30;;;;;;;4.85;2.75;;;;;;;22.59;53.82;100379.88;5041062;27;20400;-49
2022/07/28 10:19:00;;;;;;;7.38;2.55;;;;;;;22.59;54.43;100376.38;5062711;28;20044;-50
2022/07/28 10:21:29;;;;;;;4.30;2.22;;;;;;;22.76;54.74;100378.19;5076271;28;20044;-50
2022/07/28 10:24:04;;;;;;;4.05;2.70;;;;;;;22.99;54.42;100368.28;5077504;28;20139;-47
2022/07/28 10:26:36;;;;;;;5.20;2.42;;;;;;;23.16;53.41;100374.50;5078845;28;20056;-45
2022/07/28 10:29:07;;;;;;;4.28;2.33;;;;;;;23.22;53.67;100363.63;5079580;28;20059;-50
2022/07/28 10:34:21;;;;;;;4.30;2.50;;;;;;;23.23;52.38;100365.34;5030296;27;20429;-43
2022/07/28 10:36:54;;;;;;;2.90;1.42;;;;;;;23.30;53.06;100372.03;5018690;28;20092;-48
2022/07/28 10:39:24;;;;;;;3.63;1.40;;;;;;;23.45;53.25;100374.84;5021359;28;20049;-46
2022/07/28 10:41:51;;;;;;;3.25;1.60;;;;;;;23.71;52.40;100370.00;5020731;28;20050;-48
2022/07/28 10:44:21;;;;;;;3.72;1.30;;;;;;;23.84;51.69;100360.47;5022190;28;20081;-48
2022/07/28 10:46:49;;;;;;;7.60;2.30;;;;;;;23.81;50.50;100354.50;5021686;28;20054;-53
2022/07/28 10:49:16;;;;;;;5.43;1.20;;;;;;;23.81;49.50;100355.31;5019357;28;20081;-51
2022/07/28 10:51:46;;;;;;;3.08;1.23;;;;;;;23.74;49.05;100369.81;5021659;28;20077;-47
2022/07/28 10:54:41;;;;;;;4.78;1.75;;;;;;;23.86;49.28;100369.19;5020550;28;20568;-49
2022/07/28 10:57:11;;;;;;;2.53;1.30;;;;;;;23.97;49.23;100354.50;5019009;28;20061;-50
2022/07/28 10:59:53;;;;;;;3.03;1.23;;;;;;;24.06;48.77;100354.00;5023437;28;20049;-50
2022/07/28 11:02:50;;;;;;;2.03;1.08;;;;;;;24.09;49.50;100356.50;5023213;28;20107;-49
2022/07/28 11:05:38;;;;;;;5.80;1.20;;;;;;;24.07;48.76;100355.72;5025009;28;20045;-50
2022/07/28 11:19:09;;;;;;;2.80;1.48;;;;;;;23.98;46.17;100350.94;5013524;28;20966;-48
2022/07/28 11:38:14;;;;;;;2.63;0.80;;;;;;;24.05;46.57;100339.09;5053825;28;20426;-47
2022/07/28 11:48:42;;;;;;;9.15;2.25;;;;;;;24.45;44.77;100328.06;5015843;28;20416;-45
2022/07/28 11:51:11;;;;;;;3.17;1.00;;;;;;;24.30;44.03;100334.22;4996311;28;20093;-50
2022/07/28 11:56:30;;;;;;;5.72;1.92;;;;;;;24.32;44.07;100321.78;5055772;27;20399;-51
2022/07/28 11:58:59;;;;;;;1.77;0.82;;;;;;;24.31;44.19;100318.28;5023299;28;20072;-46
2022/07/28 12:01:26;;;;;;;;;;;;;;;24.15;44.23;100320.06;5023858;28;20038;-50
2022/07/28 12:03:58;;;;;;;3.75;1.95;;;;;;;24.21;44.40;100325.03;5021111;28;19998;-50
2022/07/28 12:06:33;;;;;;;4.28;1.15;;;;;;;24.05;43.16;100319.72;5018440;28;20120;-52
2022/07/28 12:09:03;;;;;;;2.25;1.05;;;;;;;23.97;44.44;100313.03;5020327;28;20217;-48
2022/07/28 12:11:33;;;;;;;5.97;1.52;;;;;;;23.91;44.01;100325.75;5020951;28;20425;-49
2022/07/28 12:16:39;;;;;;;4.43;1.00;;;;;;;23.99;45.68;100315.59;5058251;28;20407;-47
2022/07/28 12:19:06;;;;;;;;;;;;;;;23.98;45.33;100313.91;5061405;28;20041;-49
2022/07/28 12:21:44;;;;;;;2.20;0.88;;;;;;;24.17;45.70;100316.41;5054406;28;19921;-46
2022/07/28 12:24:16;;;;;;;3.72;1.20;;;;;;;24.29;45.08;100312.22;5040497;28;20476;-49
2022/07/28 12:26:45;;;;;;;5.00;2.00;;;;;;;24.34;44.00;100304.88;5033301;28;20053;-48
2022/07/28 12:29:15;;;;;;;1.80;0.95;;;;;;;24.25;42.70;100300.09;5045221;28;20049;-51
2022/07/28 12:31:54;;;;;;;2.35;1.00;;;;;;;24.20;43.05;100307.44;5056719;28;20053;-47
2022/07/28 12:34:22;;;;;;;4.45;1.60;;;;;;;24.14;42.45;100298.03;5049792;28;20540;-48
2022/07/28 12:36:56;;;;;;;2.10;1.00;;;;;;;24.11;42.82;100304.38;5046870;28;20053;-49
2022/07/28 12:39:24;;;;;;;3.08;1.02;;;;;;;24.26;43.38;100301.81;5049476;28;20127;-52
2022/07/28 12:42:09;;;;;;;2.70;0.95;;;;;;;24.34;43.56;100289.00;5051105;28;20504;-47
2022/07/28 12:44:38;;;;;;;2.90;1.27;;;;;;;24.52;43.53;100302.97;5036635;28;20045;-48
2022/07/28 12:47:07;;;;;;;1.83;0.95;;;;;;;24.63;42.73;100304.97;5036063;28;20045;-49